^^
Your Local Weather - Clay, NY Station Historical Data
Daily Summary for March 26, 2017 Units:  Metric    English   Both
« Previous Day
Next Day »
Daily Weekly Monthly Yearly Custom
  High: Low: Average:
Temperature: 4.9 °C 0.2 °C 2.4 °C
Dew Point: 2.1 °C -4.4 °C -1.1 °C
Humidity: 93% 66% 78%
Wind Speed: 11.3km/h 0km/h 5.6km/h
Wind Gust: 20.9km/h - -
Wind- - East
Pressure: 1028.3 hPa 1019.2 hPa -
Precipitation: 0.76 mm    
Historical Graphs
 
 
Tabular Data for March 26, 2017
Time Temperature Dew Point Pressure Wind Wind Speed Wind Gust Humidity Rainfall Rate (Hourly) solar
00:00 1.4 °C 0.3 °C 1028.3 hPa Calm     92% 0 mm 0 W/m2
00:06 1.4 °C 0.3 °C 1028 hPa Calm     92% 0 mm 0 W/m2
00:12 1.6 °C 0.6 °C 1028 hPa Calm     93% 0 mm 0 W/m2
00:18 1.5 °C 0.5 °C 1028 hPa ENE 1.6 km/h 1.6 km/h 93% 0 mm 0 W/m2
00:24 1.6 °C 0.6 °C 1028 hPa ENE 1.6 km/h 1.6 km/h 93% 0 mm 0 W/m2
00:30 1.5 °C 0.3 °C 1028 hPa Calm     92% 0 mm 0 W/m2
00:36 1.8 °C 0.8 °C 1028 hPa NE 3.2 km/h 4.8 km/h 93% 0 mm 0 W/m2
00:42 1.9 °C 0.9 °C 1028 hPa SE 4.8 km/h 4.8 km/h 93% 0 mm 0 W/m2
00:48 2 °C 1 °C 1028 hPa ENE 3.2 km/h 6.4 km/h 93% 0 mm 0 W/m2
00:54 2 °C 1 °C 1028 hPa ENE 3.2 km/h 3.2 km/h 93% 0 mm 0 W/m2
01:00 1.9 °C 0.9 °C 1028 hPa ENE 3.2 km/h 3.2 km/h 93% 0 mm 0 W/m2
01:06 1.9 °C 0.9 °C 1027.7 hPa East 3.2 km/h 4.8 km/h 93% 0 mm 0 W/m2
01:12 1.9 °C 0.9 °C 1027.7 hPa ENE 3.2 km/h 3.2 km/h 93% 0 mm 0 W/m2
01:18 1.9 °C 0.7 °C 1027.7 hPa ENE 4.8 km/h 11.3 km/h 92% 0 mm 0 W/m2
01:24 1.9 °C 0.7 °C 1027.7 hPa East 3.2 km/h 4.8 km/h 92% 0 mm 0 W/m2
01:30 1.8 °C 0.7 °C 1027.7 hPa NE 3.2 km/h 3.2 km/h 92% 0 mm 0 W/m2
01:36 1.8 °C 0.7 °C 1027.7 hPa East 3.2 km/h 8 km/h 92% 0 mm 0 W/m2
01:42 1.8 °C 0.7 °C 1028 hPa SE 3.2 km/h 3.2 km/h 92% 0 mm 0 W/m2
01:48 1.8 °C 0.4 °C 1028 hPa ENE 1.6 km/h 4.8 km/h 91% 0 mm 0 W/m2
01:54 1.8 °C 0.4 °C 1027.7 hPa East 1.6 km/h 1.6 km/h 91% 0 mm 0 W/m2
02:00 1.7 °C 0.4 °C 1027.7 hPa ENE 1.6 km/h 1.6 km/h 91% 0 mm 0 W/m2
02:06 1.7 °C 0.4 °C 1027.7 hPa ENE 3.2 km/h 6.4 km/h 91% 0 mm 0 W/m2
02:12 1.7 °C 0.4 °C 1027.3 hPa ENE 3.2 km/h 3.2 km/h 91% 0 mm 0 W/m2
02:18 1.7 °C 0.3 °C 1027.3 hPa ENE 1.6 km/h 3.2 km/h 91% 0 mm 0 W/m2
02:24 1.7 °C 0.3 °C 1027.3 hPa ENE 1.6 km/h 3.2 km/h 91% 0 mm 0 W/m2
02:30 1.7 °C 0.3 °C 1027.3 hPa ENE 1.6 km/h 3.2 km/h 91% 0 mm 0 W/m2
02:36 1.7 °C 0.3 °C 1027.7 hPa NE 1.6 km/h 3.2 km/h 91% 0 mm 0 W/m2
02:42 1.7 °C 0.3 °C 1027.3 hPa East 1.6 km/h 8 km/h 91% 0 mm 0 W/m2
02:48 1.7 °C 0.4 °C 1027.3 hPa SE 3.2 km/h 8 km/h 91% 0 mm 0 W/m2
02:54 1.8 °C 0.4 °C 1027 hPa East 3.2 km/h 4.8 km/h 91% 0 mm 0 W/m2
03:00 1.8 °C 0.5 °C 1027 hPa ENE 4.8 km/h 4.8 km/h 91% 0 mm 0 W/m2
03:06 1.9 °C 0.4 °C 1027 hPa ENE 6.4 km/h 8 km/h 90% 0 mm 0 W/m2
03:12 1.9 °C 0.3 °C 1027.3 hPa East 4.8 km/h 6.4 km/h 89% 0 mm 0 W/m2
03:18 1.9 °C 0.3 °C 1027.7 hPa SE 4.8 km/h 11.3 km/h 89% 0 mm 0 W/m2
03:24 1.9 °C 0.2 °C 1027 hPa ENE 4.8 km/h 8 km/h 88% 0 mm 0 W/m2
03:36 1.9 °C 0.2 °C 1027 hPa East 3.2 km/h 4.8 km/h 88% 0 mm 0 W/m2
03:42 1.9 °C 0.1 °C 1027 hPa ENE 3.2 km/h 6.4 km/h 88% 0 mm 0 W/m2
03:48 1.8 °C 0.1 °C 1027 hPa East 4.8 km/h 6.4 km/h 88% 0 mm 0 W/m2
03:54 1.8 °C 0.1 °C 1027 hPa East 6.4 km/h 14.5 km/h 88% 0 mm 0 W/m2
04:00 1.8 °C 0 °C 1027 hPa NNE 3.2 km/h 8 km/h 88% 0 mm 0 W/m2
04:06 1.8 °C -0.2 °C 1027 hPa East 4.8 km/h 8 km/h 87% 0 mm 0 W/m2
04:12 1.8 °C -0.2 °C 1027 hPa East 6.4 km/h 8 km/h 87% 0 mm 0 W/m2
04:18 1.8 °C -0.2 °C 1027 hPa ENE 6.4 km/h 14.5 km/h 87% 0 mm 0 W/m2
04:24 1.8 °C -0.3 °C 1027 hPa ENE 6.4 km/h 12.9 km/h 86% 0 mm 0 W/m2
04:30 1.8 °C -0.3 °C 1027 hPa East 4.8 km/h 4.8 km/h 86% 0 mm 0 W/m2
04:36 1.8 °C -0.5 °C 1027 hPa East 4.8 km/h 11.3 km/h 85% 0 mm 0 W/m2
04:42 1.8 °C -0.6 °C 1027 hPa East 4.8 km/h 4.8 km/h 84% 0 mm 0 W/m2
04:48 1.8 °C -0.6 °C 1027 hPa ESE 4.8 km/h 6.4 km/h 84% 0 mm 0 W/m2
04:54 1.8 °C -0.8 °C 1027 hPa East 3.2 km/h 8 km/h 83% 0 mm 0 W/m2
05:00 1.8 °C -0.7 °C 1027 hPa East 3.2 km/h 9.7 km/h 83% 0 mm 0 W/m2
05:06 1.8 °C -0.9 °C 1027 hPa ESE 3.2 km/h 9.7 km/h 82% 0 mm 0 W/m2
05:12 1.8 °C -0.9 °C 1027 hPa ENE 4.8 km/h 4.8 km/h 82% 0 mm 0 W/m2
05:18 1.8 °C -0.9 °C 1027 hPa NE 4.8 km/h 4.8 km/h 82% 0 mm 0 W/m2
05:24 1.7 °C -1 °C 1027 hPa ESE 4.8 km/h 4.8 km/h 82% 0 mm 0 W/m2
05:30 1.7 °C -1.1 °C 1027 hPa ESE 3.2 km/h 3.2 km/h 82% 0 mm 0 W/m2
05:36 1.6 °C -1.2 °C 1027 hPa East 3.2 km/h 8 km/h 82% 0 mm 0 W/m2
05:42 1.4 °C -1.3 °C 1027 hPa ENE 4.8 km/h 4.8 km/h 82% 0 mm 0 W/m2
05:48 1.4 °C -1.6 °C 1027 hPa ESE 4.8 km/h 8 km/h 80% 0 mm 0 W/m2
05:52 1.4 °C -1.7 °C 1027 hPa SE 4.8 km/h 4.8 km/h 80% 0 mm 0 W/m2
05:58 1.4 °C -2.2 °C 1027 hPa SE 3.2 km/h 4.8 km/h 77% 0 mm 0 W/m2
06:04 1.4 °C -2.6 °C 1027.3 hPa ENE 3.2 km/h 6.4 km/h 75% 0 mm 0 W/m2
06:10 1.4 °C -3.1 °C 1027 hPa ENE 4.8 km/h 6.4 km/h 72% 0 mm 0 W/m2
06:16 1.4 °C -3.1 °C 1027 hPa ENE 4.8 km/h 6.4 km/h 72% 0 mm 0 W/m2
06:22 1.3 °C -3.1 °C 1027 hPa NE 4.8 km/h 8 km/h 73% 0 mm 0 W/m2
06:28 1.1 °C -3.2 °C 1027 hPa East 4.8 km/h 8 km/h 73% 0 mm 0 W/m2
06:34 0.9 °C -3.3 °C 1027 hPa ENE 6.4 km/h 8 km/h 73% 0 mm 0 W/m2
06:40 0.9 °C -3.4 °C 1027 hPa East 4.8 km/h 4.8 km/h 73% 0 mm 0 W/m2
06:46 0.8 °C -4 °C 1027 hPa East 6.4 km/h 16.1 km/h 70% 0 mm 0 W/m2
06:52 0.8 °C -4.1 °C 1027 hPa ENE 6.4 km/h 6.4 km/h 70% 0 mm 0 W/m2
06:58 0.7 °C -4.3 °C 1027 hPa East 6.4 km/h 14.5 km/h 69% 0 mm 0 W/m2
07:04 0.7 °C -4.2 °C 1027 hPa ENE 8 km/h 8 km/h 70% 0 mm 0 W/m2
07:10 0.6 °C -4.3 °C 1027 hPa NE 6.4 km/h 9.7 km/h 70% 0 mm 0 W/m2
07:16 0.5 °C -4.3 °C 1027 hPa ESE 8 km/h 9.7 km/h 70% 0 mm 0 W/m2
07:22 0.4 °C -4.4 °C 1027 hPa East 6.4 km/h 6.4 km/h 70% 0 mm 5 W/m2
07:28 0.4 °C -4.2 °C 1027 hPa ENE 6.4 km/h 14.5 km/h 71% 0 mm 9 W/m2
07:34 0.4 °C -4.4 °C 1027 hPa ENE 8 km/h 8 km/h 70% 0 mm 11 W/m2
07:40 0.5 °C -4.2 °C 1027 hPa NE 9.7 km/h 9.7 km/h 71% 0 mm 16 W/m2
07:46 0.5 °C -4.2 °C 1027.3 hPa East 8 km/h 9.7 km/h 71% 0 mm 16 W/m2
07:52 0.4 °C -3.9 °C 1027.3 hPa ENE 6.4 km/h 8 km/h 73% 0 mm 18 W/m2
07:58 0.3 °C -3.8 °C 1027.3 hPa ENE 6.4 km/h 8 km/h 74% 0 mm 18 W/m2
08:04 0.3 °C -3.6 °C 1027.3 hPa ESE 6.4 km/h 11.3 km/h 75% 0 mm 19 W/m2
08:10 0.2 °C -3.5 °C 1027.3 hPa East 4.8 km/h 4.8 km/h 76% 0 mm 23 W/m2
08:16 0.2 °C -3.7 °C 1027 hPa ENE 6.4 km/h 12.9 km/h 75% 0 mm 23 W/m2
08:22 0.2 °C -3.6 °C 1027 hPa ENE 8 km/h 16.1 km/h 76% 0 mm 30 W/m2
08:28 0.2 °C -3.7 °C 1027 hPa NE 9.7 km/h 16.1 km/h 75% 0 mm 39 W/m2
08:34 0.2 °C -3.7 °C 1027 hPa ENE 9.7 km/h 17.7 km/h 75% 0 mm 49 W/m2
08:40 0.2 °C -3.7 °C 1027 hPa East 8 km/h 11.3 km/h 75% 0 mm 49 W/m2
08:46 0.2 °C -3.7 °C 1026.6 hPa NE 8 km/h 16.1 km/h 75% 0 mm 58 W/m2
08:52 0.2 °C -3.9 °C 1026.6 hPa ENE 9.7 km/h 16.1 km/h 74% 0 mm 67 W/m2
08:58 0.2 °C -3.9 °C 1026.6 hPa East 8 km/h 16.1 km/h 74% 0 mm 77 W/m2
09:04 0.2 °C -3.9 °C 1026.6 hPa East 8 km/h 20.9 km/h 74% 0 mm 97 W/m2
09:10 0.2 °C -3.7 °C 1026.6 hPa NE 9.7 km/h 12.9 km/h 75% 0 mm 97 W/m2
09:16 0.2 °C -3.7 °C 1026.6 hPa ENE 9.7 km/h 12.9 km/h 75% 0 mm 97 W/m2
09:22 0.3 °C -3.6 °C 1026.6 hPa ESE 8 km/h 11.3 km/h 75% 0 mm 86 W/m2
09:28 0.3 °C -3.6 °C 1026.3 hPa ENE 8 km/h 12.9 km/h 75% 0 mm 107 W/m2
09:34 0.3 °C -3.6 °C 1026.3 hPa ENE 8 km/h 9.7 km/h 75% 0 mm 125 W/m2
09:40 0.4 °C -3.7 °C 1026 hPa ENE 9.7 km/h 9.7 km/h 74% 0 mm 172 W/m2
09:46 0.4 °C -3.5 °C 1026 hPa SE 9.7 km/h 14.5 km/h 75% 0 mm 199 W/m2
09:52 0.6 °C -3.3 °C 1026 hPa ESE 8 km/h 12.9 km/h 75% 0 mm 244 W/m2
09:58 0.8 °C -3.3 °C 1026 hPa ENE 8 km/h 12.9 km/h 74% 0 mm 227 W/m2
10:10 0.9 °C -3.2 °C 1026 hPa ENE 6.4 km/h 11.3 km/h 74% 0 mm 214 W/m2
10:16 1.1 °C -3.2 °C 1026 hPa NE 6.4 km/h 11.3 km/h 73% 0 mm 234 W/m2
10:22 1 °C -3.3 °C 1026 hPa SE 9.7 km/h 12.9 km/h 73% 0 mm 248 W/m2
10:28 1.1 °C -3.2 °C 1026 hPa East 9.7 km/h 12.9 km/h 73% 0 mm 315 W/m2
10:34 1.2 °C -3.1 °C 1026 hPa ESE 9.7 km/h 12.9 km/h 73% 0 mm 274 W/m2
10:40 1.4 °C -3.1 °C 1026 hPa East 8 km/h 14.5 km/h 72% 0 mm 267 W/m2
10:46 1.5 °C -3 °C 1026 hPa ENE 8 km/h 14.5 km/h 72% 0 mm 330 W/m2
10:52 1.6 °C -2.9 °C 1026 hPa East 8 km/h 12.9 km/h 72% 0 mm 297 W/m2
10:58 1.6 °C -3.1 °C 1026 hPa ENE 8 km/h 12.9 km/h 71% 0 mm 332 W/m2
11:04 1.5 °C -3.2 °C 1026 hPa NE 9.7 km/h 14.5 km/h 71% 0 mm 404 W/m2
11:10 1.7 °C -3.1 °C 1026 hPa ENE 8 km/h 12.9 km/h 71% 0 mm 251 W/m2
11:16 1.5 °C -3.2 °C 1026 hPa East 8 km/h 12.9 km/h 71% 0 mm 232 W/m2
11:22 1.4 °C -3.2 °C 1026 hPa East 8 km/h 19.3 km/h 71% 0 mm 209 W/m2
11:28 1.3 °C -3.3 °C 1026 hPa East 11.3 km/h 19.3 km/h 71% 0 mm 211 W/m2
11:34 1.4 °C -3.2 °C 1025.6 hPa NE 9.7 km/h 14.5 km/h 71% 0 mm 229 W/m2
11:40 1.4 °C -3.2 °C 1025.6 hPa NE 9.7 km/h 12.9 km/h 71% 0 mm 221 W/m2
11:46 1.4 °C -3.2 °C 1025.6 hPa East 9.7 km/h 12.9 km/h 71% 0 mm 232 W/m2
11:52 1.6 °C -3.3 °C 1025.6 hPa ENE 9.7 km/h 17.7 km/h 70% 0 mm 193 W/m2
11:58 1.8 °C -3.1 °C 1025.3 hPa NNE 8 km/h 17.7 km/h 70% 0 mm 218 W/m2
12:04 1.8 °C -3.1 °C 1025.3 hPa NE 6.4 km/h 9.7 km/h 70% 0 mm 260 W/m2
12:10 1.9 °C -3 °C 1024.9 hPa East 9.7 km/h 12.9 km/h 70% 0 mm 287 W/m2
12:16 1.9 °C -3.2 °C 1024.9 hPa ENE 9.7 km/h 17.7 km/h 69% 0 mm 257 W/m2
12:22 1.9 °C -3.2 °C 1024.9 hPa East 9.7 km/h 11.3 km/h 69% 0 mm 248 W/m2
12:28 2.1 °C -3 °C 1024.9 hPa NE 9.7 km/h 20.9 km/h 69% 0 mm 476 W/m2
12:34 2.3 °C -2.8 °C 1024.9 hPa East 9.7 km/h 16.1 km/h 69% 0 mm 353 W/m2
12:40 2.4 °C -2.9 °C 1024.9 hPa East 9.7 km/h 14.5 km/h 68% 0 mm 339 W/m2
12:46 2.4 °C -2.7 °C 1024.9 hPa East 11.3 km/h 14.5 km/h 69% 0 mm 366 W/m2
12:52 2.6 °C -2.7 °C 1024.9 hPa ENE 9.7 km/h 14.5 km/h 68% 0 mm 357 W/m2
12:58 2.8 °C -2.6 °C 1024.9 hPa East 9.7 km/h 14.5 km/h 68% 0 mm 366 W/m2
13:04 2.8 °C -2.5 °C 1024.6 hPa East 9.7 km/h 9.7 km/h 68% 0 mm 311 W/m2
13:10 3 °C -2.3 °C 1024.6 hPa SE 9.7 km/h 9.7 km/h 68% 0 mm 311 W/m2
13:16 3.1 °C -2.4 °C 1024.6 hPa East 8 km/h 16.1 km/h 67% 0 mm 355 W/m2
13:22 3.3 °C -2.1 °C 1024.3 hPa NNE 8 km/h 12.9 km/h 68% 0 mm 250 W/m2
13:34 3.3 °C -2.3 °C 1024.3 hPa ESE 8 km/h 11.3 km/h 67% 0 mm 267 W/m2
13:40 3.3 °C -2 °C 1024.3 hPa East 8 km/h 11.3 km/h 68% 0 mm 190 W/m2
13:46 3.4 °C -1.9 °C 1024.3 hPa ENE 6.4 km/h 11.3 km/h 68% 0 mm 214 W/m2
13:52 3.6 °C -1.8 °C 1023.9 hPa East 6.4 km/h 8 km/h 68% 0 mm 223 W/m2
13:58 3.7 °C -1.7 °C 1023.9 hPa SE 6.4 km/h 8 km/h 68% 0 mm 149 W/m2
14:04 3.8 °C -1.3 °C 1023.9 hPa ESE 8 km/h 8 km/h 69% 0 mm 116 W/m2
14:10 3.7 °C -1.7 °C 1023.9 hPa East 9.7 km/h 9.7 km/h 68% 0 mm 128 W/m2
14:16 3.7 °C -1.4 °C 1023.9 hPa ENE 9.7 km/h 9.7 km/h 69% 0 mm 202 W/m2
14:28 3.8 °C -1.6 °C 1023.9 hPa ENE 6.4 km/h 12.9 km/h 68% 0 mm 118 W/m2
14:34 3.8 °C -1.6 °C 1023.6 hPa East 6.4 km/h 8 km/h 68% 0 mm 158 W/m2
14:40 3.7 °C -1.4 °C 1023.2 hPa ESE 4.8 km/h 8 km/h 69% 0 mm 163 W/m2
14:46 3.8 °C -1.3 °C 1023.6 hPa ENE 4.8 km/h 8 km/h 69% 0 mm 190 W/m2
14:52 4.2 °C -0.8 °C 1023.2 hPa NE 4.8 km/h 4.8 km/h 70% 0 mm 227 W/m2
14:58 4.6 °C -0.6 °C 1023.2 hPa SE 6.4 km/h 9.7 km/h 69% 0 mm 276 W/m2
15:04 4.8 °C -0.6 °C 1023.2 hPa ENE 8 km/h 8 km/h 68% 0 mm 355 W/m2
15:10 4.9 °C -0.7 °C 1023.2 hPa East 6.4 km/h 14.5 km/h 67% 0 mm 345 W/m2
15:16 4.7 °C -1.1 °C 1023.2 hPa East 6.4 km/h 14.5 km/h 66% 0 mm 200 W/m2
15:22 4.6 °C -1 °C 1022.9 hPa East 6.4 km/h 8 km/h 67% 0 mm 181 W/m2
15:28 4.6 °C -0.8 °C 1022.9 hPa ESE 6.4 km/h 8 km/h 68% 0 mm 169 W/m2
15:34 4.6 °C -0.8 °C 1022.9 hPa East 6.4 km/h 9.7 km/h 68% 0 mm 155 W/m2
15:40 4.5 °C -0.7 °C 1022.6 hPa ESE 6.4 km/h 6.4 km/h 69% 0 mm 144 W/m2
15:46 4.6 °C -0.4 °C 1022.6 hPa East 4.8 km/h 14.5 km/h 70% 0 mm 134 W/m2
15:52 4.6 °C -0.4 °C 1022.6 hPa ESE 6.4 km/h 6.4 km/h 70% 0 mm 125 W/m2
15:58 4.5 °C -0.7 °C 1022.2 hPa ESE 8 km/h 12.9 km/h 69% 0 mm 141 W/m2
16:04 4.3 °C -0.8 °C 1022.2 hPa ENE 6.4 km/h 14.5 km/h 69% 0 mm 151 W/m2
16:10 4.1 °C -1.1 °C 1022.2 hPa NE 6.4 km/h 9.7 km/h 69% 0 mm 178 W/m2
16:16 4.1 °C -1.1 °C 1021.9 hPa ESE 8 km/h 9.7 km/h 69% 0 mm 186 W/m2
16:22 4.1 °C -1.1 °C 1021.9 hPa ENE 8 km/h 8 km/h 69% 0 mm 179 W/m2
16:28 4.2 °C -1 °C 1022.2 hPa ENE 6.4 km/h 8 km/h 69% 0 mm 142 W/m2
16:34 4.3 °C -0.7 °C 1022.2 hPa ENE 4.8 km/h 9.7 km/h 70% 0 mm 135 W/m2
16:40 4.4 °C -0.6 °C 1021.9 hPa East 4.8 km/h 4.8 km/h 70% 0 mm 142 W/m2
16:46 4.4 °C -0.6 °C 1021.9 hPa ESE 6.4 km/h 16.1 km/h 70% 0 mm 144 W/m2
16:52 4.4 °C -0.6 °C 1021.6 hPa ENE 8 km/h 14.5 km/h 70% 0 mm 171 W/m2
16:58 4.4 °C -0.6 °C 1021.6 hPa SE 8 km/h 14.5 km/h 70% 0 mm 125 W/m2
17:04 4.4 °C -0.6 °C 1021.6 hPa SSE 6.4 km/h 8 km/h 70% 0 mm 120 W/m2
17:10 4.3 °C -0.4 °C 1021.2 hPa NNE 6.4 km/h 8 km/h 71% 0 mm 107 W/m2
17:16 4.3 °C -0.4 °C 1021.2 hPa East 6.4 km/h 9.7 km/h 71% 0 mm 100 W/m2
17:22 4.3 °C -0.5 °C 1021.2 hPa ESE 6.4 km/h 8 km/h 71% 0 mm 93 W/m2
17:28 4.2 °C -0.4 °C 1021.2 hPa East 6.4 km/h 8 km/h 72% 0 mm 81 W/m2
17:34 4.2 °C -0.4 °C 1021.2 hPa SE 6.4 km/h 8 km/h 72% 0 mm 67 W/m2
17:40 4.1 °C -0.5 °C 1021.2 hPa East 6.4 km/h 6.4 km/h 72% 0 mm 54 W/m2
17:46 4 °C -0.4 °C 1021.2 hPa East 4.8 km/h 8 km/h 73% 0 mm 54 W/m2
17:52 3.9 °C -0.5 °C 1021.2 hPa ESE 4.8 km/h 4.8 km/h 73% 0 mm 70 W/m2
17:58 3.8 °C -0.6 °C 1021.2 hPa NE 4.8 km/h 4.8 km/h 73% 0 mm 74 W/m2
18:04 3.7 °C -0.7 °C 1021.2 hPa ESE 4.8 km/h 4.8 km/h 73% 0 mm 62 W/m2
18:10 3.7 °C -0.7 °C 1021.2 hPa East 4.8 km/h 4.8 km/h 73% 0 mm 46 W/m2
18:16 3.6 °C -0.7 °C 1021.2 hPa ENE 4.8 km/h 4.8 km/h 74% 0 mm 40 W/m2
18:22 3.5 °C -0.7 °C 1021.2 hPa SSE 4.8 km/h 9.7 km/h 74% 0 mm 35 W/m2
18:28 3.4 °C -0.8 °C 1021.2 hPa East 4.8 km/h 9.7 km/h 74% 0 mm 25 W/m2
18:34 3.5 °C -0.5 °C 1021.2 hPa ESE 4.8 km/h 4.8 km/h 75% 0 mm 18 W/m2
18:40 3.7 °C -0.2 °C 1021.2 hPa East 4.8 km/h 4.8 km/h 76% 0 mm 14 W/m2
18:46 3.8 °C 0 °C 1021.2 hPa ESE 4.8 km/h 4.8 km/h 76% 0 mm 12 W/m2
18:52 3.7 °C -0.1 °C 1021.2 hPa ENE 4.8 km/h 4.8 km/h 76% 0 mm 11 W/m2
18:58 3.6 °C -0.2 °C 1021.2 hPa ENE 4.8 km/h 12.9 km/h 76% 0 mm 9 W/m2
19:04 3.4 °C -0.4 °C 1021.2 hPa SE 6.4 km/h 6.4 km/h 76% 0 mm 7 W/m2
19:10 3.4 °C -0.3 °C 1021.2 hPa ENE 4.8 km/h 4.8 km/h 77% 0 mm 5 W/m2
19:16 3.3 °C -0.4 °C 1020.9 hPa ENE 4.8 km/h 8 km/h 77% 0 mm 0 W/m2
19:22 3.2 °C -0.5 °C 1020.9 hPa ESE 4.8 km/h 8 km/h 77% 0 mm 0 W/m2
19:28 3.1 °C -0.3 °C 1020.9 hPa ENE 4.8 km/h 11.3 km/h 78% 0 mm 0 W/m2
19:34 2.9 °C -0.5 °C 1020.9 hPa ENE 6.4 km/h 11.3 km/h 78% 0 mm 0 W/m2
19:40 2.7 °C -0.7 °C 1020.5 hPa East 8 km/h 8 km/h 78% 0 mm 0 W/m2
19:46 2.6 °C -0.7 °C 1020.5 hPa ENE 8 km/h 9.7 km/h 79% 0 mm 0 W/m2
19:52 2.5 °C -0.8 °C 1020.5 hPa East 8 km/h 11.3 km/h 79% 0 mm 0 W/m2
19:58 2.4 °C -0.7 °C 1020.9 hPa East 6.4 km/h 11.3 km/h 80% 0 mm 0 W/m2
20:04 2.4 °C -0.7 °C 1020.9 hPa East 4.8 km/h 8 km/h 80% 0 mm 0 W/m2
20:10 2.4 °C -0.5 °C 1020.9 hPa ENE 4.8 km/h 4.8 km/h 81% 0 mm 0 W/m2
20:16 2.4 °C -0.5 °C 1020.9 hPa ENE 3.2 km/h 4.8 km/h 81% 0 mm 0 W/m2
20:22 2.4 °C -0.6 °C 1020.9 hPa ENE 3.2 km/h 3.2 km/h 81% 0 mm 0 W/m2
20:28 2.4 °C -0.6 °C 1020.9 hPa East 3.2 km/h 6.4 km/h 81% 0 mm 0 W/m2
20:34 2.4 °C -0.3 °C 1020.9 hPa ENE 3.2 km/h 6.4 km/h 82% 0 mm 0 W/m2
20:40 2.4 °C -0.3 °C 1020.9 hPa ENE 3.2 km/h 3.2 km/h 82% 0 mm 0 W/m2
20:46 2.6 °C -0.1 °C 1020.5 hPa East 3.2 km/h 4.8 km/h 83% 0 mm 0 W/m2
20:52 2.7 °C 0.1 °C 1020.5 hPa ENE 3.2 km/h 8 km/h 83% 0 mm 0 W/m2
20:58 2.9 °C 0.3 °C 1020.5 hPa ESE 3.2 km/h 8 km/h 83% 0 mm 0 W/m2
21:04 3.1 °C 0.3 °C 1020.5 hPa ENE 3.2 km/h 4.8 km/h 82% 0 mm 0 W/m2
21:10 3.2 °C 0.4 °C 1020.5 hPa ENE 3.2 km/h 3.2 km/h 82% 0 mm 0 W/m2
21:16 3.1 °C 0.3 °C 1020.5 hPa East 3.2 km/h 3.2 km/h 82% 0 mm 0 W/m2
21:22 3.1 °C 0.3 °C 1020.5 hPa East 3.2 km/h 3.2 km/h 82% 0 mm 0 W/m2
21:28 3.1 °C 0.3 °C 1020.5 hPa East 1.6 km/h 3.2 km/h 82% 0 mm 0 W/m2
21:34 3.1 °C 0.3 °C 1020.5 hPa East 1.6 km/h 3.2 km/h 82% 0 mm 0 W/m2
21:40 3.1 °C 0.3 °C 1020.5 hPa East 1.6 km/h 1.6 km/h 82% 0 mm 0 W/m2
21:46 3.1 °C 0.4 °C 1020.2 hPa East 1.6 km/h 4.8 km/h 83% 0 mm 0 W/m2
21:52 3 °C 0.4 °C 1020.5 hPa East 3.2 km/h 3.2 km/h 83% 0 mm 0 W/m2
21:58 3.1 °C 0.4 °C 1020.2 hPa ESE 1.6 km/h 3.2 km/h 83% 0 mm 0 W/m2
22:04 3.3 °C 0.9 °C 1020.2 hPa SE 1.6 km/h 4.8 km/h 84% 0 mm 0 W/m2
22:10 3.7 °C 1.3 °C 1020.5 hPa SE 3.2 km/h 3.2 km/h 84% 0 mm 0 W/m2
22:16 3.7 °C 1.1 °C 1020.5 hPa ENE 3.2 km/h 6.4 km/h 83% 0 mm 0 W/m2
22:22 3.2 °C 0.6 °C 1020.2 hPa ENE 1.6 km/h 3.2 km/h 83% 0 mm 0 W/m2
22:28 3.3 °C 0.8 °C 1020.2 hPa ENE 1.6 km/h 4.8 km/h 84% 0 mm 0 W/m2
22:34 3.4 °C 1 °C 1020.2 hPa SE 1.6 km/h 4.8 km/h 84% 0 mm 0 W/m2
22:40 3.9 °C 1.7 °C 1020.2 hPa East 3.2 km/h 3.2 km/h 85% 0 mm 0 W/m2
22:46 4.1 °C 1.4 °C 1020.2 hPa ESE 3.2 km/h 4.8 km/h 83% 0 mm 0 W/m2
22:52 4.4 °C 1.8 °C 1019.9 hPa ESE 4.8 km/h 4.8 km/h 83% 0 mm 0 W/m2
22:58 4.6 °C 1.9 °C 1019.9 hPa SSE 4.8 km/h 6.4 km/h 83% 0 mm 0 W/m2
23:04 4.4 °C 2 °C 1019.9 hPa SE 4.8 km/h 4.8 km/h 84% 0 mm 0 W/m2
23:12 4.3 °C 2.1 °C 1019.9 hPa SE 4.8 km/h 4.8 km/h 85% 0 mm 0 W/m2
23:18 4.2 °C 2.1 °C 1019.9 hPa ESE 3.2 km/h 4.8 km/h 86% 0 mm 0 W/m2
23:24 4.1 °C 2 °C 1019.5 hPa ESE 3.2 km/h 3.2 km/h 86% 0 mm 0 W/m2
23:30 4.1 °C 2.1 °C 1019.5 hPa East 1.6 km/h 1.6 km/h 87% 0 mm 0 W/m2
23:36 3.9 °C 1.9 °C 1019.5 hPa ESE 1.6 km/h 1.6 km/h 87% 0 mm 0 W/m2
23:42 3.6 °C 1.7 °C 1019.5 hPa East 1.6 km/h 3.2 km/h 87% 0 mm 0 W/m2
23:48 3.7 °C 1.9 °C 1019.5 hPa SE 1.6 km/h 3.2 km/h 88% 0 mm 0 W/m2
23:54 3.8 °C 2.1 °C 1019.2 hPa SE 3.2 km/h 6.4 km/h 89% 0 mm 0 W/m2
Country Meadow, Clay, NY, USA
Compliments of Weather Underground - 2 mb